createdAt,value
2022-08-10T00:02:13.836Z,100809.75
2022-08-10T00:12:15.809Z,100801.56
2022-08-10T00:22:17.515Z,100803.28
2022-08-10T00:32:19.691Z,100790.66
2022-08-10T00:42:25.719Z,100785.94
2022-08-10T00:52:31.513Z,100797.44
2022-08-10T01:02:36.227Z,100807.06
2022-08-10T01:13:04.327Z,100800.72
2022-08-10T01:23:18.061Z,100798.56
2022-08-10T01:33:31.621Z,100800.94
2022-08-10T01:43:56.566Z,100801.97
2022-08-10T01:54:12.620Z,100800.16
2022-08-10T02:04:17.262Z,100807.19
2022-08-10T02:14:20.547Z,100801.31
2022-08-10T02:24:24.842Z,100795.88
2022-08-10T02:34:28.083Z,100805.53
2022-08-10T02:45:24.430Z,100812.47
2022-08-10T02:55:39.638Z,100807.75
2022-08-10T03:05:42.690Z,100812.47
2022-08-10T03:15:47.038Z,100824.41
2022-08-10T03:25:53.629Z,100840.25
2022-08-10T03:36:41.414Z,100849.13
2022-08-10T03:46:21.428Z,100855.09
2022-08-10T03:56:29.274Z,100864.72
2022-08-10T04:06:36.259Z,100859.66
2022-08-10T04:16:40.173Z,100862.41
2022-08-10T04:26:42.591Z,100855.84
2022-08-10T04:36:45.227Z,100851.97
2022-08-10T04:46:58.396Z,100856.31
2022-08-10T04:57:01.972Z,100867.50
2022-08-10T05:07:03.677Z,100866.81
2022-08-10T05:17:05.230Z,100876.97
2022-08-10T05:27:09.562Z,100875.28
2022-08-10T05:38:12.696Z,100861.03
2022-08-10T05:48:55.803Z,100871.25
2022-08-10T05:57:58.717Z,100867.59
2022-08-10T06:08:16.140Z,100862.25
2022-08-10T06:18:23.661Z,100866.59
2022-08-10T06:28:31.263Z,100857.25
2022-08-10T06:38:37.162Z,100854.19
2022-08-10T06:48:49.714Z,100857.38
2022-08-10T06:59:05.051Z,100855.97
2022-08-10T07:09:09.908Z,100860.56
2022-08-10T07:19:18.645Z,100846.03
2022-08-10T07:29:26.737Z,100838.00
2022-08-10T07:40:02.645Z,100832.28
2022-08-10T07:50:10.621Z,100833.28
2022-08-10T08:00:14.708Z,100840.72
2022-08-10T08:10:19.002Z,100838.66
2022-08-10T08:20:23.264Z,100828.91
2022-08-10T08:30:27.936Z,100828.03
2022-08-10T08:40:35.132Z,100818.34
2022-08-10T08:52:06.320Z,100815.59
2022-08-10T09:02:14.734Z,100823.28
2022-08-10T09:12:58.627Z,100811.19
2022-08-10T09:23:14.090Z,100806.84
2022-08-10T09:36:29.966Z,100804.22
2022-08-10T09:43:56.730Z,100796.16
2022-08-10T09:54:06.550Z,100792.22
2022-08-10T10:04:41.304Z,100781.22
2022-08-10T10:15:25.031Z,100784.50
2022-08-10T10:25:51.597Z,100764.06
2022-08-10T10:35:55.752Z,100740.38
2022-08-10T10:46:34.919Z,100747.84
2022-08-10T10:57:13.833Z,100746.28
2022-08-10T11:07:53.393Z,100745.66
2022-08-10T11:18:04.920Z,100741.44
2022-08-10T11:28:27.936Z,100715.00
2022-08-10T11:39:14.307Z,100729.25
2022-08-10T11:49:45.412Z,100727.47
2022-08-10T11:59:58.238Z,100704.91
2022-08-10T12:10:14.322Z,100724.22
2022-08-10T12:20:22.443Z,100709.78
2022-08-10T12:31:04.103Z,100710.13
2022-08-10T12:41:44.226Z,100658.13
2022-08-10T12:51:58.700Z,100692.28
2022-08-10T13:02:06.526Z,100688.22
2022-08-10T13:12:37.967Z,100685.06
2022-08-10T13:22:41.793Z,100669.16
2022-08-10T13:32:51.936Z,100673.53
2022-08-10T13:42:58.631Z,100669.34
2022-08-10T13:53:02.296Z,100664.56
2022-08-10T14:03:13.257Z,100656.50
2022-08-10T14:13:27.723Z,100638.34
2022-08-10T14:23:32.532Z,100622.06
2022-08-10T14:33:56.105Z,100632.38
2022-08-10T14:44:13.638Z,100624.66
2022-08-10T14:54:17.676Z,100595.56
2022-08-10T15:04:24.860Z,100599.38
2022-08-10T15:14:42.672Z,100616.66
2022-08-10T15:25:18.004Z,100610.81
2022-08-10T15:35:50.427Z,100587.91
2022-08-10T15:46:22.632Z,100588.31
2022-08-10T15:56:57.040Z,100603.06
2022-08-10T16:07:17.445Z,100595.78
2022-08-10T16:17:22.482Z,100605.44
2022-08-10T16:27:30.366Z,100605.44
2022-08-10T16:37:57.732Z,100607.38
2022-08-10T16:48:02.093Z,100609.75
2022-08-10T16:58:07.845Z,100590.28
2022-08-10T17:08:14.828Z,100602.66
2022-08-10T17:18:27.705Z,100617.13
2022-08-10T17:28:35.104Z,100622.41
2022-08-10T17:38:38.403Z,100631.44
2022-08-10T17:48:41.842Z,100638.47
2022-08-10T17:58:51.328Z,100646.53
2022-08-10T18:09:01.139Z,100642.81
2022-08-10T18:19:09.095Z,100644.41
2022-08-10T18:29:18.657Z,100656.66
2022-08-10T18:39:37.781Z,100661.06
2022-08-10T18:49:39.662Z,100671.88
2022-08-10T19:00:03.568Z,100687.13
2022-08-10T19:10:12.720Z,100692.09
2022-08-10T19:20:21.420Z,100676.91
2022-08-10T19:30:29.276Z,100693.38
2022-08-10T19:40:50.856Z,100703.63
2022-08-10T19:50:59.214Z,100705.56
2022-08-10T20:01:07.526Z,100706.50
2022-08-10T20:11:57.731Z,100707.69
2022-08-10T20:22:08.983Z,100713.94
2022-08-10T20:32:21.973Z,100731.72
2022-08-10T20:42:43.918Z,100744.66
2022-08-10T20:52:49.781Z,100751.69
2022-08-10T21:03:44.064Z,100762.16
2022-08-10T21:13:56.629Z,100764.19
2022-08-10T21:24:05.420Z,100759.19
2022-08-10T21:34:18.663Z,100758.72
2022-08-10T21:56:29.454Z,100747.34
2022-08-10T22:06:55.125Z,100759.38
2022-08-10T22:18:03.625Z,100750.28
2022-08-10T22:28:15.733Z,100766.00
2022-08-10T22:31:25.188Z,100758.78
2022-08-10T22:39:16.185Z,100761.00
2022-08-10T22:49:37.776Z,100756.94
2022-08-10T22:59:39.580Z,100766.34
2022-08-10T23:09:43.271Z,100774.78
2022-08-10T23:19:49.760Z,100755.97
2022-08-10T23:30:09.225Z,100751.63
2022-08-10T23:40:18.747Z,100754.94
2022-08-10T23:50:21.314Z,100742.22
